createdAt,value
2017-10-06T00:00:33.044Z,1001.15
2017-10-06T00:01:45.544Z,1001.22
2017-10-06T00:02:58.028Z,1001.17
2017-10-06T00:04:10.224Z,1001.23
2017-10-06T00:05:22.719Z,1001.29
2017-10-06T00:06:35.215Z,1001.3
2017-10-06T00:07:47.411Z,1001.25
2017-10-06T00:08:59.281Z,1001.24
2017-10-06T00:10:11.477Z,1001.19
2017-10-06T00:11:23.673Z,1001.23
2017-10-06T00:12:36.168Z,1001.28
2017-10-06T00:13:48.365Z,1001.2
2017-10-06T00:15:00.867Z,1001.34
2017-10-06T00:16:13.063Z,1001.23
2017-10-06T00:17:25.251Z,1001.23
2017-10-06T00:18:37.755Z,1001.22
2017-10-06T00:19:49.950Z,1001.19
2017-10-06T00:21:02.114Z,1001.19
2017-10-06T00:22:14.608Z,1001.23
2017-10-06T00:23:27.112Z,1001.22
2017-10-06T00:24:39.599Z,1001.22
2017-10-06T00:25:52.095Z,1001.23
2017-10-06T00:27:04.599Z,1001.25
2017-10-06T00:28:16.787Z,1001.22
2017-10-06T00:29:28.957Z,1001.2
2017-10-06T00:30:40.835Z,1001.18
2017-10-06T00:31:53.024Z,1001.28
2017-10-06T00:33:05.578Z,1001.19
2017-10-06T00:34:18.065Z,1001.18
2017-10-06T00:35:30.564Z,1001.21
2017-10-06T00:36:42.781Z,1001.2
2017-10-06T00:37:55.277Z,1001.23
2017-10-06T00:39:07.472Z,1001.24
2017-10-06T00:40:19.072Z,1001.27
2017-10-06T00:41:31.564Z,1001.19
2017-10-06T00:42:44.359Z,1001.27
2017-10-06T00:43:56.256Z,1001.28
2017-10-06T00:45:08.125Z,1001.27
2017-10-06T00:46:20.297Z,1001.26
2017-10-06T00:47:32.800Z,1001.2
2017-10-06T00:48:45.288Z,1001.2
2017-10-06T00:49:57.783Z,1001.19
2017-10-06T00:51:09.979Z,1001.19
2017-10-06T00:52:22.183Z,1001.24
2017-10-06T00:53:34.370Z,1001.28
2017-10-06T00:54:46.874Z,1001.21
2017-10-06T00:55:59.070Z,1001.21
2017-10-06T00:57:11.264Z,1001.15
2017-10-06T00:58:23.464Z,1001.18
2017-10-06T00:59:35.681Z,1001.16
2017-10-06T01:00:48.170Z,1001.12
2017-10-06T01:02:00.066Z,1001.1
2017-10-06T01:03:12.568Z,1001.14
2017-10-06T01:04:24.756Z,1001.08
2017-10-06T01:05:37.252Z,1001.17
2017-10-06T01:06:49.456Z,1001.14
2017-10-06T01:08:01.944Z,1001.18
2017-10-06T01:09:14.140Z,1001.16
2017-10-06T01:10:26.634Z,1001.2
2017-10-06T01:11:39.112Z,1001.16
2017-10-06T01:12:51.009Z,1001.17
2017-10-06T01:14:02.272Z,1001.15
2017-10-06T01:15:14.774Z,1001.11
2017-10-06T01:16:26.971Z,1001.19
2017-10-06T01:17:39.459Z,1001.19
2017-10-06T01:18:51.980Z,1001.18
2017-10-06T01:20:04.187Z,1001.17
2017-10-06T01:21:16.070Z,1001.14
2017-10-06T01:22:28.574Z,1001.23
2017-10-06T01:23:40.462Z,1001.13
2017-10-06T01:24:52.658Z,1001.14
2017-10-06T01:26:05.186Z,1001.16
2017-10-06T01:27:17.082Z,1001.16
2017-10-06T01:28:28.969Z,1001.16
2017-10-06T01:29:40.553Z,1001.18
2017-10-06T01:30:52.436Z,1001.14
2017-10-06T01:32:04.939Z,1001.01
2017-10-06T01:33:16.827Z,1001.08
2017-10-06T01:34:29.323Z,1001.08
2017-10-06T01:35:41.826Z,1001.1
2017-10-06T01:36:54.314Z,1001.12
2017-10-06T01:38:06.516Z,1001.09
2017-10-06T01:39:18.713Z,1001.06
2017-10-06T01:40:30.602Z,1001.07
2017-10-06T01:41:42.803Z,1001.06
2017-10-06T01:42:54.994Z,1001.08
2017-10-06T01:44:07.495Z,1001.08
2017-10-06T01:45:19.366Z,1001.06
2017-10-06T01:46:31.863Z,1001.04
2017-10-06T01:47:44.350Z,1001.08
2017-10-06T01:48:56.528Z,1000.99
2017-10-06T01:50:09.024Z,1001
2017-10-06T01:51:21.212Z,1001.04
2017-10-06T01:52:33.433Z,1000.99
2017-10-06T01:53:45.935Z,1000.98
2017-10-06T01:54:57.499Z,1000.93
2017-10-06T01:56:09.401Z,1000.92
2017-10-06T01:57:21.897Z,1000.93
2017-10-06T01:58:34.386Z,1000.96
2017-10-06T01:59:46.882Z,1000.98
2017-10-06T02:00:59.077Z,1001
2017-10-06T02:02:11.581Z,1000.96
2017-10-06T02:03:23.777Z,1000.93
2017-10-06T02:04:36.267Z,1000.94
2017-10-06T02:05:48.760Z,1000.94
2017-10-06T02:07:01.262Z,1000.98
2017-10-06T02:08:13.465Z,1000.95
2017-10-06T02:09:26.206Z,1000.94
2017-10-06T02:10:38.693Z,1000.87
2017-10-06T02:11:50.867Z,1000.94
2017-10-06T02:13:02.758Z,1000.94
2017-10-06T02:14:14.955Z,1000.96
2017-10-06T02:15:27.449Z,1001.03
2017-10-06T02:16:39.946Z,1000.94
2017-10-06T02:17:52.149Z,1001.03
2017-10-06T02:19:04.345Z,1000.88
2017-10-06T02:20:16.532Z,1000.96
2017-10-06T02:21:28.410Z,1000.92
2017-10-06T02:22:40.324Z,1000.9
2017-10-06T02:23:52.831Z,1000.91
2017-10-06T02:25:05.023Z,1000.94
2017-10-06T02:26:17.210Z,1000.98
2017-10-06T02:27:29.706Z,1000.98
2017-10-06T02:28:42.202Z,1000.97
2017-10-06T02:29:54.705Z,1000.99
2017-10-06T02:31:06.269Z,1001
2017-10-06T02:32:18.772Z,1000.97
2017-10-06T02:33:30.968Z,1000.98
2017-10-06T02:34:42.564Z,1000.92
2017-10-06T02:35:55.083Z,1000.86
2017-10-06T02:37:07.598Z,1000.84
2017-10-06T02:38:20.092Z,1000.89
2017-10-06T02:39:32.295Z,1000.88
2017-10-06T02:40:44.184Z,1000.84
2017-10-06T02:41:56.388Z,1000.85
2017-10-06T02:43:08.900Z,1000.95
2017-10-06T02:44:21.396Z,1000.88
2017-10-06T02:45:33.291Z,1000.93
2017-10-06T02:46:45.776Z,1000.9
2017-10-06T02:47:58.283Z,1000.95
2017-10-06T02:49:10.478Z,1000.89
2017-10-06T02:50:22.982Z,1000.95
2017-10-06T02:51:34.878Z,1000.92
2017-10-06T02:52:46.772Z,1000.86
2017-10-06T02:53:58.975Z,1000.89
2017-10-06T02:55:11.513Z,1000.93
2017-10-06T02:56:23.711Z,1000.83
2017-10-06T02:57:35.599Z,1000.85
2017-10-06T02:58:48.094Z,1000.89
2017-10-06T03:00:00.288Z,1000.84
2017-10-06T03:01:11.869Z,1000.8
2017-10-06T03:02:24.355Z,1000.8
2017-10-06T03:03:36.551Z,1000.87
2017-10-06T03:04:49.054Z,1000.83
2017-10-06T03:06:01.242Z,1000.85
2017-10-06T03:07:12.817Z,1000.91
2017-10-06T03:08:25.008Z,1000.93
2017-10-06T03:09:37.504Z,1000.91
2017-10-06T03:10:49.683Z,1000.89
2017-10-06T03:12:01.896Z,1000.86
2017-10-06T03:13:14.101Z,1000.83
2017-10-06T03:14:26.869Z,1000.79
2017-10-06T03:15:39.046Z,1000.8
2017-10-06T03:16:51.536Z,1000.79
2017-10-06T03:18:03.727Z,1000.66
2017-10-06T03:19:15.920Z,1000.74
2017-10-06T03:20:28.415Z,1000.76
2017-10-06T03:21:40.011Z,1000.78
2017-10-06T03:22:52.506Z,1000.72
2017-10-06T03:24:04.702Z,1000.76
2017-10-06T03:25:17.197Z,1000.84
2017-10-06T03:26:29.069Z,1000.76
2017-10-06T03:27:41.571Z,1000.77
2017-10-06T03:28:54.068Z,1000.68
2017-10-06T03:30:06.256Z,1000.79
2017-10-06T03:31:18.134Z,1000.71
2017-10-06T03:32:30.621Z,1000.84
2017-10-06T03:33:42.799Z,1000.81
2017-10-06T03:34:55.287Z,1000.77
2017-10-06T03:36:07.484Z,1000.82
2017-10-06T03:37:19.654Z,1000.81
2017-10-06T03:38:32.164Z,1000.8
2017-10-06T03:39:44.645Z,1000.82
2017-10-06T03:40:57.148Z,1000.82
2017-10-06T03:42:09.337Z,1000.82
2017-10-06T03:43:21.540Z,1000.79
2017-10-06T03:44:33.752Z,1000.9
2017-10-06T03:45:46.280Z,1000.79
2017-10-06T03:46:59.077Z,1000.91
2017-10-06T03:48:10.974Z,1000.88
2017-10-06T03:49:23.169Z,1000.89
2017-10-06T03:50:35.665Z,1000.86
2017-10-06T03:51:47.552Z,1000.83
2017-10-06T03:53:00.047Z,1000.86
2017-10-06T03:54:12.244Z,1000.81
2017-10-06T03:55:24.772Z,1000.8
2017-10-06T03:56:37.268Z,1000.82
2017-10-06T03:57:49.464Z,1000.86
2017-10-06T03:59:01.661Z,1000.85
2017-10-06T04:00:13.530Z,1000.86
2017-10-06T04:01:26.026Z,1000.85
2017-10-06T04:02:37.929Z,1000.89
2017-10-06T04:03:50.141Z,1000.83
2017-10-06T04:05:02.338Z,1000.78
2017-10-06T04:06:14.858Z,1000.85
2017-10-06T04:07:27.053Z,1000.82
2017-10-06T04:08:39.567Z,1000.82
2017-10-06T04:09:52.069Z,1000.8
2017-10-06T04:11:04.557Z,1000.76
2017-10-06T04:12:16.436Z,1000.88
2017-10-06T04:13:28.632Z,1000.87
2017-10-06T04:14:41.119Z,1000.74
2017-10-06T04:15:53.298Z,1000.82
2017-10-06T04:17:05.489Z,1000.89
2017-10-06T04:18:17.981Z,1000.85
2017-10-06T04:19:30.178Z,1000.88
2017-10-06T04:20:42.684Z,1000.84
2017-10-06T04:21:55.168Z,1000.81
2017-10-06T04:23:07.374Z,1000.78
2017-10-06T04:24:19.560Z,1000.8
2017-10-06T04:25:32.056Z,1000.74
2017-10-06T04:26:44.551Z,1000.7
2017-10-06T04:27:56.435Z,1000.76
2017-10-06T04:29:08.634Z,1000.76
2017-10-06T04:30:21.138Z,1000.77
2017-10-06T04:31:33.334Z,1000.8
2017-10-06T04:32:45.504Z,1000.67
2017-10-06T04:33:57.699Z,1000.76
2017-10-06T04:35:09.895Z,1000.76
2017-10-06T04:36:22.083Z,1000.76
2017-10-06T04:37:34.595Z,1000.76
2017-10-06T04:38:47.082Z,1000.78
2017-10-06T04:39:59.285Z,1000.73
2017-10-06T04:41:11.786Z,1000.72
2017-10-06T04:42:24.269Z,1000.81
2017-10-06T04:43:36.790Z,1000.75
2017-10-06T04:44:48.994Z,1000.79
2017-10-06T04:46:01.182Z,1000.74
2017-10-06T04:47:13.377Z,1000.76
2017-10-06T04:48:25.581Z,1000.78
2017-10-06T04:49:38.069Z,1000.7
2017-10-06T04:50:50.564Z,1000.77
2017-10-06T04:52:02.767Z,1000.78
2017-10-06T04:53:15.256Z,1000.79
2017-10-06T04:54:27.759Z,1000.8
2017-10-06T04:55:39.634Z,1000.77
2017-10-06T04:56:51.517Z,1000.8
2017-10-06T04:58:04.012Z,1000.75
2017-10-06T04:59:15.583Z,1000.86
2017-10-06T05:00:27.754Z,1000.84
2017-10-06T05:01:39.633Z,1000.8
2017-10-06T05:02:52.428Z,1000.82
2017-10-06T05:04:04.916Z,1000.78
2017-10-06T05:05:17.111Z,1000.91
2017-10-06T05:06:29.292Z,1000.86
2017-10-06T05:07:41.510Z,1000.85
2017-10-06T05:08:54.024Z,1000.87
2017-10-06T05:10:06.527Z,1000.85
2017-10-06T05:11:18.715Z,1000.81
2017-10-06T05:12:30.919Z,1000.87
2017-10-06T05:13:43.406Z,1000.86
2017-10-06T05:14:55.902Z,1000.85
2017-10-06T05:16:08.404Z,1000.86
2017-10-06T05:17:20.293Z,1000.81
2017-10-06T05:18:32.464Z,1000.9
2017-10-06T05:19:44.660Z,1000.85
2017-10-06T05:20:57.163Z,1000.85
2017-10-06T05:22:09.350Z,1000.8
2017-10-06T05:23:21.246Z,1000.9
2017-10-06T05:24:33.748Z,1000.87
2017-10-06T05:25:46.238Z,1000.95
2017-10-06T05:26:58.434Z,1000.9
2017-10-06T05:28:10.637Z,1000.96
2017-10-06T05:29:22.825Z,1000.96
2017-10-06T05:30:35.045Z,1000.98
2017-10-06T05:31:46.919Z,1000.97
2017-10-06T05:32:59.144Z,1000.97
2017-10-06T05:34:11.658Z,1000.99
2017-10-06T05:35:24.160Z,1000.93
2017-10-06T05:36:36.649Z,1001
2017-10-06T05:37:48.844Z,1001.02
2017-10-06T05:39:01.349Z,1001.02
2017-10-06T05:40:13.835Z,1000.97
2017-10-06T05:41:26.338Z,1001.02
2017-10-06T05:42:38.535Z,1001.04
2017-10-06T05:43:51.023Z,1001.03
2017-10-06T05:45:03.525Z,1001.05
2017-10-06T05:46:15.122Z,1000.96
2017-10-06T05:47:27.316Z,1000.95
2017-10-06T05:48:39.506Z,1001.05
2017-10-06T05:49:52.002Z,1001.05
2017-10-06T05:51:04.196Z,1001.06
2017-10-06T05:52:15.775Z,1001.06
2017-10-06T05:53:28.270Z,1000.98
2017-10-06T05:54:40.466Z,1001.1
2017-10-06T05:55:52.666Z,1001.1
2017-10-06T05:57:04.850Z,1001.08
2017-10-06T05:58:17.027Z,1001.15
2017-10-06T05:59:29.215Z,1001.15
2017-10-06T06:00:41.419Z,1001.16
2017-10-06T06:01:53.616Z,1001.13
2017-10-06T06:03:05.827Z,1001.13
2017-10-06T06:04:18.030Z,1001.16
2017-10-06T06:05:30.228Z,1001.13
2017-10-06T06:06:42.423Z,1001.14
2017-10-06T06:07:54.617Z,1001.17
2017-10-06T06:09:06.506Z,1001.16
2017-10-06T06:10:18.710Z,1001.23
2017-10-06T06:11:31.223Z,1001.18
2017-10-06T06:12:43.475Z,1001.2
2017-10-06T06:13:55.973Z,1001.25
2017-10-06T06:15:08.467Z,1001.27
2017-10-06T06:16:20.664Z,1001.19
2017-10-06T06:17:33.158Z,1001.24
2017-10-06T06:18:45.897Z,1001.19
2017-10-06T06:19:58.399Z,1001.25
2017-10-06T06:21:10.594Z,1001.29
2017-10-06T06:22:22.491Z,1001.33
2017-10-06T06:23:34.979Z,1001.34
2017-10-06T06:24:47.175Z,1001.3
2017-10-06T06:25:59.673Z,1001.36
2017-10-06T06:27:11.574Z,1001.33
2017-10-06T06:28:23.462Z,1001.38
2017-10-06T06:29:35.040Z,1001.38
2017-10-06T06:30:46.976Z,1001.46
2017-10-06T06:31:59.473Z,1001.39
2017-10-06T06:33:11.377Z,1001.47
2017-10-06T06:34:23.572Z,1001.45
2017-10-06T06:35:36.065Z,1001.46
2017-10-06T06:36:48.256Z,1001.47
2017-10-06T06:38:00.462Z,1001.51
2017-10-06T06:39:12.948Z,1001.54
2017-10-06T06:40:25.701Z,1001.49
2017-10-06T06:41:37.289Z,1001.52
2017-10-06T06:42:49.797Z,1001.6
2017-10-06T06:44:01.989Z,1001.43
2017-10-06T06:45:14.502Z,1001.51
2017-10-06T06:46:26.698Z,1001.62
2017-10-06T06:47:39.224Z,1001.58
2017-10-06T06:48:51.720Z,1001.54
2017-10-06T06:50:04.241Z,1001.61
2017-10-06T06:51:16.129Z,1001.64
2017-10-06T06:52:28.626Z,1001.58
2017-10-06T06:53:40.827Z,1001.59
2017-10-06T06:54:53.041Z,1001.62
2017-10-06T06:56:05.218Z,1001.59
2017-10-06T06:57:17.432Z,1001.54
2017-10-06T06:58:29.936Z,1001.5
2017-10-06T06:59:42.432Z,1001.49
2017-10-06T07:00:54.626Z,1001.46
2017-10-06T07:02:06.515Z,1001.53
2017-10-06T07:03:19.011Z,1001.55
2017-10-06T07:04:31.540Z,1001.64
2017-10-06T07:05:44.027Z,1001.59
2017-10-06T07:06:56.547Z,1001.62
2017-10-06T07:08:08.126Z,1001.64
2017-10-06T07:09:20.314Z,1001.67
2017-10-06T07:10:32.818Z,1001.66
2017-10-06T07:11:45.014Z,1001.63
2017-10-06T07:12:57.201Z,1001.61
2017-10-06T07:14:09.397Z,1001.69
2017-10-06T07:15:21.875Z,1001.65
2017-10-06T07:16:34.071Z,1001.67
2017-10-06T07:17:46.272Z,1001.6
2017-10-06T07:18:58.165Z,1001.61
2017-10-06T07:20:10.657Z,1001.65
2017-10-06T07:21:22.553Z,1001.71
2017-10-06T07:22:35.049Z,1001.71
2017-10-06T07:23:46.937Z,1001.76
2017-10-06T07:24:59.433Z,1001.75
2017-10-06T07:26:11.338Z,1001.78
2017-10-06T07:27:23.225Z,1001.77
2017-10-06T07:28:35.728Z,1001.83
2017-10-06T07:29:47.922Z,1001.8
2017-10-06T07:31:00.118Z,1001.77
2017-10-06T07:32:12.631Z,1001.75
2017-10-06T07:33:24.828Z,1001.72
2017-10-06T07:34:36.724Z,1001.79
2017-10-06T07:35:49.227Z,1001.81
2017-10-06T07:37:01.723Z,1001.75
2017-10-06T07:38:13.913Z,1001.85
2017-10-06T07:39:25.814Z,1001.84
2017-10-06T07:40:38.001Z,1001.84
2017-10-06T07:41:50.179Z,1001.87
2017-10-06T07:43:02.675Z,1001.85
2017-10-06T07:44:14.588Z,1001.79
2017-10-06T07:45:26.784Z,1001.85
2017-10-06T07:46:39.287Z,1001.9
2017-10-06T07:47:50.576Z,1001.86
2017-10-06T07:49:02.479Z,1001.88
2017-10-06T07:50:14.373Z,1001.92
2017-10-06T07:51:26.570Z,1001.94
2017-10-06T07:52:38.766Z,1002
2017-10-06T07:53:51.279Z,1001.96
2017-10-06T07:55:03.474Z,1002.05
2017-10-06T07:56:15.676Z,1002.02
2017-10-06T07:57:27.865Z,1002.1
2017-10-06T07:58:39.761Z,1002.03
2017-10-06T07:59:51.963Z,1002.03
2017-10-06T08:01:04.171Z,1002.01
2017-10-06T08:02:16.081Z,1002
2017-10-06T08:03:28.568Z,1002
2017-10-06T08:04:41.073Z,1002.05
2017-10-06T08:05:53.560Z,1002.02
2017-10-06T08:07:05.131Z,1002.06
2017-10-06T08:08:17.008Z,1002.16
2017-10-06T08:09:29.497Z,1002.02
2017-10-06T08:10:41.368Z,1002.21
2017-10-06T08:11:53.863Z,1002.09
2017-10-06T08:13:06.034Z,1002.07
2017-10-06T08:14:18.213Z,1002.06
2017-10-06T08:15:30.125Z,1002.01
2017-10-06T08:16:42.329Z,1001.98
2017-10-06T08:17:54.766Z,1001.98
2017-10-06T08:19:06.362Z,1002.01
2017-10-06T08:20:18.866Z,1002.07
2017-10-06T08:21:31.062Z,1002.18
2017-10-06T08:22:43.556Z,1002.12
2017-10-06T08:23:56.045Z,1002.07
2017-10-06T08:25:08.241Z,1002.12
2017-10-06T08:26:20.748Z,1002.21
2017-10-06T08:27:32.940Z,1002.09
2017-10-06T08:28:45.177Z,1002.21
2017-10-06T08:29:57.698Z,1002.2
2017-10-06T08:31:09.903Z,1002.11
2017-10-06T08:32:22.098Z,1002.22
2017-10-06T08:33:34.592Z,1002.2
2017-10-06T08:34:46.489Z,1002.19
2017-10-06T08:35:58.084Z,1002.13
2017-10-06T08:37:10.581Z,1002.04
2017-10-06T08:38:22.800Z,1002.11
2017-10-06T08:39:35.546Z,1002.08
2017-10-06T08:40:48.034Z,1002.12
2017-10-06T08:42:00.229Z,1002.15
2017-10-06T08:43:11.825Z,1002.15
2017-10-06T08:44:24.328Z,1002.11
2017-10-06T08:45:36.825Z,1002.24
2017-10-06T08:46:49.037Z,1002.15
2017-10-06T08:48:01.239Z,1002.19
2017-10-06T08:49:13.154Z,1002.31
2017-10-06T08:50:25.357Z,1002.26
2017-10-06T08:51:37.253Z,1002.13
2017-10-06T08:52:49.149Z,1002.16
2017-10-06T08:54:01.036Z,1002.26
2017-10-06T08:55:13.539Z,1002.24
2017-10-06T08:56:25.110Z,1002.19
2017-10-06T08:57:37.605Z,1002.26
2017-10-06T08:58:49.177Z,1002.24
2017-10-06T09:00:01.397Z,1002.23
2017-10-06T09:01:13.610Z,1002.26
2017-10-06T09:02:26.113Z,1002.24
2017-10-06T09:03:38.634Z,1002.32
2017-10-06T09:04:51.129Z,1002.3
2017-10-06T09:06:03.317Z,1002.31
2017-10-06T09:07:14.889Z,1002.34
2017-10-06T09:08:27.393Z,1002.45
2017-10-06T09:09:39.288Z,1002.24
2017-10-06T09:10:51.809Z,1002.34
2017-10-06T09:12:03.995Z,1002.44
2017-10-06T09:13:15.875Z,1002.49
2017-10-06T09:14:28.062Z,1002.41
2017-10-06T09:15:39.958Z,1002.41
2017-10-06T09:16:52.462Z,1002.37
2017-10-06T09:18:04.957Z,1002.34
2017-10-06T09:19:17.156Z,1002.28
2017-10-06T09:20:29.374Z,1002.34
2017-10-06T09:21:41.869Z,1002.37
2017-10-06T09:22:54.063Z,1002.4
2017-10-06T09:24:06.560Z,1002.41
2017-10-06T09:25:18.755Z,1002.46
2017-10-06T09:26:30.652Z,1002.53
2017-10-06T09:27:43.165Z,1002.46
2017-10-06T09:28:55.343Z,1002.3
2017-10-06T09:30:07.839Z,1002.38
2017-10-06T09:31:20.352Z,1002.45
2017-10-06T09:32:32.255Z,1002.44
2017-10-06T09:33:44.151Z,1002.38
2017-10-06T09:34:56.646Z,1002.43
2017-10-06T09:36:08.246Z,1002.58
2017-10-06T09:37:20.430Z,1002.4
2017-10-06T09:38:32.625Z,1002.4
2017-10-06T09:39:44.828Z,1002.48
2017-10-06T09:40:57.024Z,1002.47
2017-10-06T09:42:08.896Z,1002.59
2017-10-06T09:43:21.090Z,1002.55
2017-10-06T09:44:32.987Z,1002.5
2017-10-06T09:45:44.882Z,1002.57
2017-10-06T09:46:57.070Z,1002.56
2017-10-06T09:48:08.973Z,1002.56
2017-10-06T09:49:21.169Z,1002.62
2017-10-06T09:50:33.665Z,1002.56
2017-10-06T09:51:45.861Z,1002.62
2017-10-06T09:52:57.731Z,1002.58
2017-10-06T09:54:09.969Z,1002.64
2017-10-06T09:55:22.471Z,1002.6
2017-10-06T09:56:34.669Z,1002.62
2017-10-06T09:57:47.194Z,1002.61
2017-10-06T09:58:59.707Z,1002.7
2017-10-06T10:00:11.905Z,1002.75
2017-10-06T10:01:24.401Z,1002.76
2017-10-06T10:02:36.290Z,1002.71
2017-10-06T10:03:48.791Z,1002.71
2017-10-06T10:05:01.289Z,1002.77
2017-10-06T10:06:13.176Z,1002.77
2017-10-06T10:07:25.382Z,1002.75
2017-10-06T10:08:37.592Z,1002.84
2017-10-06T10:09:50.100Z,1002.91
2017-10-06T10:11:02.591Z,1002.86
2017-10-06T10:12:14.183Z,1002.79
2017-10-06T10:13:26.074Z,1002.79
2017-10-06T10:14:37.980Z,1002.76
2017-10-06T10:15:50.472Z,1002.69
2017-10-06T10:17:02.987Z,1002.77
2017-10-06T10:18:15.490Z,1002.74
2017-10-06T10:19:27.708Z,1002.85
2017-10-06T10:20:40.208Z,1002.83
2017-10-06T10:21:52.402Z,1002.79
2017-10-06T10:23:04.914Z,1002.84
2017-10-06T10:24:17.119Z,1002.88
2017-10-06T10:25:29.338Z,1002.87
2017-10-06T10:26:41.851Z,1002.86
2017-10-06T10:27:54.354Z,1002.84
2017-10-06T10:29:05.943Z,1002.82
2017-10-06T10:30:17.223Z,1002.86
2017-10-06T10:31:28.533Z,1002.88
2017-10-06T10:32:41.038Z,1003.01
2017-10-06T10:33:53.234Z,1003.1
2017-10-06T10:35:05.431Z,1002.99
2017-10-06T10:36:17.620Z,1003.06
2017-10-06T10:37:30.121Z,1003.02
2017-10-06T10:38:42.618Z,1002.96
2017-10-06T10:39:54.804Z,1002.95
2017-10-06T10:41:06.711Z,1002.97
2017-10-06T10:42:18.330Z,1002.91
2017-10-06T10:43:30.541Z,1002.86
2017-10-06T10:44:42.750Z,1002.89
2017-10-06T10:45:55.264Z,1002.83
2017-10-06T10:47:07.453Z,1002.77
2017-10-06T10:48:19.324Z,1002.84
2017-10-06T10:49:31.229Z,1002.88
2017-10-06T10:50:43.750Z,1002.81
2017-10-06T10:51:55.944Z,1002.85
2017-10-06T10:53:07.834Z,1002.88
2017-10-06T10:54:20.034Z,1002.83
2017-10-06T10:55:31.922Z,1002.86
2017-10-06T10:56:43.817Z,1002.85
2017-10-06T10:57:56.322Z,1002.78
2017-10-06T10:59:08.518Z,1002.72
2017-10-06T11:00:20.715Z,1002.8
2017-10-06T11:01:33.208Z,1002.85
2017-10-06T11:02:45.396Z,1002.83
2017-10-06T11:03:57.600Z,1002.78
2017-10-06T11:05:09.495Z,1002.76
2017-10-06T11:06:21.392Z,1002.75
2017-10-06T11:07:33.287Z,1002.73
2017-10-06T11:08:45.481Z,1002.66
2017-10-06T11:09:57.377Z,1002.71
2017-10-06T11:11:09.873Z,1002.7
2017-10-06T11:12:22.368Z,1002.78
2017-10-06T11:13:34.565Z,1002.73
2017-10-06T11:14:46.461Z,1002.74
2017-10-06T11:15:58.958Z,1002.86
2017-10-06T11:17:11.456Z,1002.79
2017-10-06T11:18:23.647Z,1002.85
2017-10-06T11:19:36.144Z,1002.87
2017-10-06T11:20:48.040Z,1002.83
2017-10-06T11:22:00.235Z,1002.9
2017-10-06T11:23:12.131Z,1002.83
2017-10-06T11:24:23.721Z,1002.77
2017-10-06T11:25:36.222Z,1002.74
2017-10-06T11:26:48.110Z,1002.76
2017-10-06T11:28:00.613Z,1002.77
2017-10-06T11:29:12.501Z,1002.8
2017-10-06T11:30:25.006Z,1002.75
2017-10-06T11:31:37.200Z,1002.86
2017-10-06T11:32:49.098Z,1002.79
2017-10-06T11:34:01.292Z,1002.75
2017-10-06T11:35:13.480Z,1002.74
2017-10-06T11:36:25.983Z,1002.79
2017-10-06T11:37:38.504Z,1002.79
2017-10-06T11:38:50.999Z,1002.79
2017-10-06T11:40:03.494Z,1002.79
2017-10-06T11:41:14.783Z,1002.81
2017-10-06T11:42:26.963Z,1002.94
2017-10-06T11:43:38.849Z,1002.8
2017-10-06T11:44:50.745Z,1002.81
2017-10-06T11:46:02.624Z,1002.86
2017-10-06T11:47:14.520Z,1002.73
2017-10-06T11:48:27.014Z,1002.65
2017-10-06T11:49:38.905Z,1002.63
2017-10-06T11:50:50.800Z,1002.77
2017-10-06T11:52:02.998Z,1002.82
2017-10-06T11:53:15.223Z,1002.93
2017-10-06T11:54:27.120Z,1003.04
2017-10-06T11:55:38.716Z,1002.9
2017-10-06T11:56:50.910Z,1002.87
2017-10-06T11:58:03.429Z,1002.89
2017-10-06T11:59:15.318Z,1002.83
2017-10-06T12:00:27.497Z,1002.77
2017-10-06T12:01:39.993Z,1002.87
2017-10-06T12:02:52.179Z,1002.8
2017-10-06T12:04:04.386Z,1002.78
2017-10-06T12:05:16.278Z,1002.79
2017-10-06T12:06:27.874Z,1002.75
2017-10-06T12:07:40.071Z,1002.73
2017-10-06T12:08:52.283Z,1002.68
2017-10-06T12:10:04.181Z,1002.76
2017-10-06T12:11:16.383Z,1002.91
2017-10-06T12:12:28.280Z,1002.87
2017-10-06T12:13:40.474Z,1002.81
2017-10-06T12:14:52.661Z,1002.79
2017-10-06T12:16:04.865Z,1002.85
2017-10-06T12:17:16.735Z,1002.89
2017-10-06T12:18:28.932Z,1002.86
2017-10-06T12:19:41.431Z,1002.85
2017-10-06T12:20:53.923Z,1002.75
2017-10-06T12:22:06.118Z,1002.86
2017-10-06T12:23:18.014Z,1002.81
2017-10-06T12:24:30.210Z,1002.85
2017-10-06T12:25:42.704Z,1002.96
2017-10-06T12:26:54.575Z,1002.99
2017-10-06T12:28:06.466Z,1002.97
2017-10-06T12:29:18.967Z,1002.85
2017-10-06T12:30:31.463Z,1002.81
2017-10-06T12:31:43.351Z,1002.79
2017-10-06T12:32:55.855Z,1002.82
2017-10-06T12:34:07.742Z,1002.84
2017-10-06T12:35:19.945Z,1002.79
2017-10-06T12:36:31.541Z,1002.89
2017-10-06T12:37:43.437Z,1002.9
2017-10-06T12:38:55.331Z,1002.83
2017-10-06T12:40:07.570Z,1002.91
2017-10-06T12:41:19.448Z,1002.82
2017-10-06T12:42:31.644Z,1002.85
2017-10-06T12:43:43.840Z,1002.8
2017-10-06T12:44:55.727Z,1002.99
2017-10-06T12:46:07.932Z,1003.06
2017-10-06T12:47:19.848Z,1003.03
2017-10-06T12:48:31.748Z,1002.89
2017-10-06T12:49:43.648Z,1002.93
2017-10-06T12:50:55.539Z,1002.94
2017-10-06T12:52:07.434Z,1002.91
2017-10-06T12:53:19.930Z,1002.81
2017-10-06T12:54:31.818Z,1002.96
2017-10-06T12:55:44.322Z,1002.84
2017-10-06T12:56:56.517Z,1002.95
2017-10-06T12:58:08.441Z,1002.91
2017-10-06T12:59:20.933Z,1002.97
2017-10-06T13:00:33.130Z,1003.03
2017-10-06T13:01:45.625Z,1003.01
2017-10-06T13:02:57.520Z,1003.04
2017-10-06T13:04:09.716Z,1003.17
2017-10-06T13:05:21.912Z,1003.1
2017-10-06T13:06:33.808Z,1003.06
2017-10-06T13:07:46.387Z,1003.14
2017-10-06T13:08:58.899Z,1003.03
2017-10-06T13:10:10.187Z,1003.06
2017-10-06T13:11:22.690Z,1003.06
2017-10-06T13:12:34.588Z,1003.11
2017-10-06T13:13:46.786Z,1003.02
2017-10-06T13:14:58.694Z,1002.96
2017-10-06T13:16:09.979Z,1002.87
2017-10-06T13:17:22.494Z,1003.01
2017-10-06T13:18:34.990Z,1003.02
2017-10-06T13:19:47.486Z,1002.94
2017-10-06T13:20:59.372Z,1003.04
2017-10-06T13:22:11.579Z,1002.93
2017-10-06T13:23:23.773Z,1002.96
2017-10-06T13:24:35.668Z,1003.04
2017-10-06T13:25:47.556Z,1002.89
2017-10-06T13:26:59.759Z,1002.9
2017-10-06T13:28:12.267Z,1002.98
2017-10-06T13:29:24.449Z,1002.94
2017-10-06T13:30:36.647Z,1002.97
2017-10-06T13:31:48.842Z,1002.99
2017-10-06T13:33:01.337Z,1002.89
2017-10-06T13:34:13.534Z,1003.06
2017-10-06T13:35:25.729Z,1003.04
2017-10-06T13:36:38.225Z,1003.18
2017-10-06T13:37:50.412Z,1003.36
2017-10-06T13:39:01.991Z,1003.31
2017-10-06T13:40:14.486Z,1003.33
2017-10-06T13:41:26.981Z,1003.31
2017-10-06T13:42:38.870Z,1003.28
2017-10-06T13:43:51.374Z,1003.31
2017-10-06T13:45:03.870Z,1003.29
2017-10-06T13:46:16.065Z,1003.25
2017-10-06T13:47:27.653Z,1003.19
2017-10-06T13:48:40.155Z,1003.29
2017-10-06T13:49:52.354Z,1003.22
2017-10-06T13:51:04.248Z,1003.27
2017-10-06T13:52:16.743Z,1003.2
2017-10-06T13:53:28.963Z,1003.23
2017-10-06T13:54:41.177Z,1003.3
2017-10-06T13:55:53.680Z,1003.27
2017-10-06T13:57:06.226Z,1003.27
2017-10-06T13:58:18.113Z,1003.26
2017-10-06T13:59:30.317Z,1003.29
2017-10-06T14:00:42.562Z,1003.35
2017-10-06T14:01:54.758Z,1003.4
2017-10-06T14:03:07.254Z,1003.43
2017-10-06T14:04:19.750Z,1003.52
2017-10-06T14:05:31.962Z,1003.47
2017-10-06T14:06:44.458Z,1003.53
2017-10-06T14:07:56.962Z,1003.6
2017-10-06T14:09:09.478Z,1003.64
2017-10-06T14:10:21.678Z,1003.65
2017-10-06T14:11:34.177Z,1003.65
2017-10-06T14:12:46.719Z,1003.71
2017-10-06T14:13:59.215Z,1003.68
2017-10-06T14:15:11.736Z,1003.8
2017-10-06T14:16:23.623Z,1003.89
2017-10-06T14:17:35.819Z,1003.83
2017-10-06T14:18:48.028Z,1003.86
2017-10-06T14:19:59.611Z,1004.09
2017-10-06T14:21:12.114Z,1003.92
2017-10-06T14:22:24.634Z,1003.99
2017-10-06T14:23:37.129Z,1003.98
2017-10-06T14:24:49.018Z,1003.98
2017-10-06T14:26:01.213Z,1004.08
2017-10-06T14:27:13.709Z,1004
2017-10-06T14:28:26.204Z,1004.07
2017-10-06T14:29:38.700Z,1004.07
2017-10-06T14:30:51.203Z,1004.1
2017-10-06T14:32:02.768Z,1004.05
2017-10-06T14:33:14.937Z,1004.05
2017-10-06T14:34:27.141Z,1004.08
2017-10-06T14:35:39.635Z,1004.09
2017-10-06T14:36:52.132Z,1004.08